Time;durP1;ratioP1;P1;durP2;ratioP2;P2;SDS_P1;SDS_P2;PMS_P1;PMS_P2;Temp;Humidity;BMP_temperature;BMP_pressure;BME280_temperature;BME280_humidity;BME280_pressure;Samples;Min_cycle;Max_cycle;Signal;HPM_P1;HPM_P2
2022/12/11 00:01:43;;;;;;;53.95;37.35;;;;;;;8.33;100.00;98928.66;5038990;28;20574;-76
2022/12/11 00:04:08;;;;;;;51.40;37.75;;;;;;;7.59;100.00;98793.91;5036550;28;20040;-76
2022/12/11 00:06:33;;;;;;;56.58;37.58;;;;;;;7.48;100.00;98774.06;5032363;28;20492;-77
2022/12/11 00:08:59;;;;;;;53.75;35.65;;;;;;;8.12;100.00;98895.84;5037241;28;20397;-74
2022/12/11 00:11:24;;;;;;;50.45;34.55;;;;;;;7.75;100.00;98827.63;5036085;28;20041;-77
2022/12/11 00:13:50;;;;;;;54.75;36.22;;;;;;;7.58;100.00;98800.00;5032669;28;20124;-77
2022/12/11 00:16:15;;;;;;;53.47;36.85;;;;;;;8.45;100.00;98925.91;5038884;28;20069;-76
2022/12/11 00:18:41;;;;;;;57.28;38.63;;;;;;;8.44;100.00;98913.69;5038194;28;20060;-77
2022/12/11 00:21:09;;;;;;;50.30;38.70;;;;;;;7.45;100.00;98789.78;5039183;28;20037;-76
2022/12/11 00:23:35;;;;;;;51.72;34.67;;;;;;;7.62;100.00;98808.66;5044104;28;20124;-77
2022/12/11 00:26:08;;;;;;;52.60;37.47;;;;;;;7.57;100.00;98813.09;5042841;28;20048;-75
2022/12/11 00:28:34;;;;;;;51.67;37.08;;;;;;;7.89;100.00;98857.03;5019661;28;20949;-77
2022/12/11 00:31:10;;;;;;;54.10;38.05;;;;;;;7.71;100.00;98792.88;5041905;28;20048;-77
2022/12/11 00:33:36;;;;;;;51.40;35.13;;;;;;;8.09;100.00;98876.78;5035009;28;20056;-77
2022/12/11 00:36:01;;;;;;;46.67;33.53;;;;;;;7.68;100.00;98774.66;5035279;28;22304;-74
2022/12/11 00:38:27;;;;;;;52.58;34.90;;;;;;;8.30;100.00;98889.50;5046277;28;20696;-76
2022/12/11 00:40:58;;;;;;;46.42;33.33;;;;;;;8.22;100.00;98892.25;5031582;28;20146;-77
2022/12/11 00:43:23;;;;;;;49.25;34.35;;;;;;;8.15;100.00;98880.16;5042288;28;20037;-76
2022/12/11 00:45:48;;;;;;;52.72;36.50;;;;;;;7.90;100.00;98866.59;5041150;28;20060;-78
2022/12/11 00:48:14;;;;;;;49.17;34.08;;;;;;;8.06;100.00;98869.84;5043025;28;20037;-77
2022/12/11 00:50:40;;;;;;;49.08;37.17;;;;;;;7.48;100.00;98771.47;5049480;28;20120;-78
2022/12/11 00:53:06;;;;;;;58.90;35.03;;;;;;;7.18;100.00;98711.84;5048737;28;20052;-77
2022/12/11 00:55:36;;;;;;;49.28;33.53;;;;;;;8.08;100.00;98844.56;5044377;28;20053;-75
2022/12/11 00:58:01;;;;;;;47.90;34.67;;;;;;;8.09;100.00;98848.03;5049731;28;20051;-77
2022/12/11 01:00:27;;;;;;;56.35;36.95;;;;;;;8.21;100.00;98856.53;5045956;28;20048;-78
2022/12/11 01:02:52;;;;;;;54.42;37.42;;;;;;;7.37;100.00;98743.78;5047820;28;20032;-76
2022/12/11 01:05:18;;;;;;;51.63;38.25;;;;;;;7.87;100.00;98837.91;5050452;28;20599;-76
2022/12/11 01:07:43;;;;;;;51.08;37.53;;;;;;;7.71;100.00;98789.41;5052621;28;20451;-77
2022/12/11 01:10:24;;;;;;;56.65;37.15;;;;;;;7.92;100.00;98827.41;5069578;28;20052;-77
2022/12/11 01:13:04;;;;;;;60.58;38.67;;;;;;;7.95;100.00;98809.91;5034520;28;20417;-79
2022/12/11 01:15:42;;;;;;;53.38;35.72;;;;;;;7.18;100.00;98675.31;5058603;28;20116;-77
2022/12/11 01:18:09;;;;;;;58.78;38.97;;;;;;;7.96;100.00;98798.59;5046977;28;20586;-78
2022/12/11 01:20:37;;;;;;;46.22;38.53;;;;;;;7.49;100.00;98731.44;5055340;28;20066;-76
2022/12/11 01:23:03;;;;;;;60.97;42.00;;;;;;;7.58;100.00;98750.41;5040023;28;20571;-78
2022/12/11 01:25:28;;;;;;;63.20;40.75;;;;;;;7.70;100.00;98774.63;5039584;28;20053;-78
2022/12/11 01:27:54;;;;;;;55.22;40.88;;;;;;;7.87;100.00;98793.53;5043685;28;20691;-78
2022/12/11 01:30:22;;;;;;;60.60;40.13;;;;;;;7.80;100.00;98784.06;5043903;28;21116;-78
2022/12/11 01:32:48;;;;;;;56.33;38.83;;;;;;;7.81;100.00;98776.19;5042459;28;20069;-77
2022/12/11 01:35:14;;;;;;;52.63;37.05;;;;;;;8.07;100.00;98787.97;5040132;28;20232;-78
2022/12/11 01:37:39;;;;;;;52.08;38.45;;;;;;;7.38;100.00;98677.66;5038039;28;20081;-77
2022/12/11 01:40:06;;;;;;;48.22;37.83;;;;;;;7.82;100.00;98766.63;5044236;28;20091;-77
2022/12/11 01:42:33;;;;;;;55.17;38.28;;;;;;;7.11;100.00;98638.94;5021016;28;20119;-78
2022/12/11 01:45:27;;;;;;;52.92;38.08;;;;;;;7.94;100.00;98789.94;5040925;28;20130;-76
2022/12/11 01:47:58;;;;;;;55.70;39.58;;;;;;;8.04;100.00;98773.22;5017505;28;20056;-76
2022/12/11 01:50:23;;;;;;;63.50;45.50;;;;;;;7.93;100.00;98776.88;5044548;28;20037;-74
2022/12/11 01:52:49;;;;;;;60.20;46.08;;;;;;;7.88;100.00;98744.75;5040243;28;20128;-75
2022/12/11 01:55:17;;;;;;;70.93;49.25;;;;;;;7.93;100.00;98753.38;5028193;28;20131;-75
2022/12/11 01:57:45;;;;;;;92.22;69.90;;;;;;;7.47;100.00;98671.44;5057716;28;20056;-77
2022/12/11 02:00:11;;;;;;;101.78;80.05;;;;;;;7.12;100.00;98622.41;5043660;28;20116;-78
2022/12/11 02:02:37;;;;;;;111.45;86.22;;;;;;;7.94;100.00;98744.66;5043971;28;20096;-75
2022/12/11 02:05:05;;;;;;;114.70;92.68;;;;;;;7.22;100.00;98613.56;5046757;28;20875;-79
2022/12/11 02:07:40;;;;;;;123.22;99.93;;;;;;;7.81;100.00;98705.69;5049260;28;20048;-77
2022/12/11 02:10:07;;;;;;;117.32;94.93;;;;;;;7.12;100.00;98598.94;5047266;28;20052;-79
2022/12/11 02:12:41;;;;;;;130.02;107.50;;;;;;;7.93;100.00;98735.94;5035459;28;20079;-78
2022/12/11 02:15:16;;;;;;;89.85;76.65;;;;;;;7.95;100.00;98731.56;5041069;28;20094;-79
2022/12/11 02:17:50;;;;;;;99.85;74.18;;;;;;;7.87;100.00;98730.00;5039892;28;20056;-78
2022/12/11 02:20:37;;;;;;;96.07;68.50;;;;;;;6.97;100.00;98571.34;5040458;28;20061;-78
2022/12/11 02:23:14;;;;;;;101.20;74.82;;;;;;;7.92;100.00;98717.72;5043563;28;20299;-78
2022/12/11 02:26:17;;;;;;;108.57;79.60;;;;;;;7.83;100.00;98710.88;5044774;28;20132;-76
2022/12/11 02:29:01;;;;;;;124.50;96.70;;;;;;;7.69;100.00;98692.84;5046520;28;20428;-78
2022/12/11 02:31:35;;;;;;;92.28;72.75;;;;;;;7.13;100.00;98592.84;5017901;28;20053;-76
2022/12/11 02:34:33;;;;;;;80.38;56.03;;;;;;;7.04;100.00;98572.13;5043780;28;20057;-75
2022/12/11 02:37:09;;;;;;;66.90;42.20;;;;;;;7.71;100.00;98708.47;5049687;28;20162;-77
2022/12/11 02:39:39;;;;;;;68.85;43.40;;;;;;;6.93;100.00;98565.31;5045643;28;20048;-76
2022/12/11 02:42:07;;;;;;;65.82;44.45;;;;;;;7.18;100.00;98615.34;5036773;28;20168;-75
2022/12/11 02:44:34;;;;;;;54.67;41.75;;;;;;;7.77;100.00;98701.41;5047954;28;20040;-76
2022/12/11 02:47:02;;;;;;;58.65;41.47;;;;;;;7.83;100.00;98693.47;5038475;28;20168;-74
2022/12/11 02:49:30;;;;;;;57.83;41.17;;;;;;;7.07;100.00;98564.22;5043783;28;20056;-75
2022/12/11 02:51:58;;;;;;;50.22;37.25;;;;;;;7.61;100.00;98661.66;5046908;28;20044;-77
2022/12/11 02:54:29;;;;;;;49.65;35.53;;;;;;;7.71;100.00;98680.63;5050590;28;20119;-74
2022/12/11 02:57:03;;;;;;;66.13;35.33;;;;;;;7.15;100.00;98591.91;5033451;28;20037;-77
2022/12/11 02:59:39;;;;;;;48.63;34.42;;;;;;;6.97;100.00;98533.09;5044343;28;20062;-77
2022/12/11 03:02:05;;;;;;;53.50;33.20;;;;;;;7.76;100.00;98676.19;5030976;28;20048;-74
2022/12/11 03:04:32;;;;;;;38.63;31.05;;;;;;;6.98;100.00;98523.53;5041298;28;20052;-78
2022/12/11 03:07:11;;;;;;;56.20;33.88;;;;;;;7.13;100.00;98551.09;5053734;28;20139;-75
2022/12/11 03:09:42;;;;;;;54.78;35.47;;;;;;;7.17;100.00;98550.19;5030165;28;20599;-78
2022/12/11 03:12:10;;;;;;;56.20;31.67;;;;;;;7.63;100.00;98621.59;5030561;28;20052;-76
2022/12/11 03:14:37;;;;;;;41.70;32.08;;;;;;;6.95;100.00;98514.03;5045554;28;20037;-76
2022/12/11 03:17:26;;;;;;;45.25;31.98;;;;;;;7.75;100.00;98653.59;5045048;28;20076;-77
2022/12/11 03:20:28;;;;;;;48.88;31.52;;;;;;;7.75;100.00;98650.97;5042025;28;20061;-77
2022/12/11 03:23:04;;;;;;;49.17;33.80;;;;;;;6.85;100.00;98483.75;5048735;28;20132;-77
2022/12/11 03:26:00;;;;;;;64.60;34.67;;;;;;;7.32;100.00;98562.94;5038621;28;20126;-76
2022/12/11 03:28:38;;;;;;;50.30;31.75;;;;;;;7.77;100.00;98617.88;5047417;28;20049;-77
2022/12/11 03:31:11;;;;;;;47.35;33.33;;;;;;;6.91;100.00;98475.84;5020377;28;20053;-76
2022/12/11 03:33:41;;;;;;;54.75;34.85;;;;;;;7.82;100.00;98618.66;5038782;28;20436;-77
2022/12/11 03:36:13;;;;;;;53.10;33.53;;;;;;;7.05;100.00;98496.47;5044968;28;20094;-76
2022/12/11 03:38:50;;;;;;;43.75;33.00;;;;;;;7.59;100.00;98579.03;5049627;28;20039;-75
2022/12/11 03:41:20;;;;;;;49.42;34.00;;;;;;;7.77;100.00;98609.16;5042505;28;20154;-75
2022/12/11 03:43:50;;;;;;;48.60;30.88;;;;;;;7.56;100.00;98574.75;5039188;28;20854;-77
2022/12/11 03:46:21;;;;;;;45.33;31.05;;;;;;;7.65;100.00;98583.28;5041180;28;20068;-75
2022/12/11 03:48:47;;;;;;;40.95;30.65;;;;;;;7.82;100.00;98604.75;5044211;28;20107;-75
2022/12/11 03:51:15;;;;;;;40.50;31.20;;;;;;;7.22;100.00;98497.94;5035573;28;20065;-76
2022/12/11 03:53:41;;;;;;;37.78;31.45;;;;;;;7.74;100.00;98572.66;5046117;28;20143;-77
2022/12/11 03:56:10;;;;;;;39.85;27.02;;;;;;;7.22;100.00;98490.09;5044609;28;20509;-76
2022/12/11 03:58:36;;;;;;;54.03;32.03;;;;;;;7.93;100.00;98594.94;5043579;28;20049;-75
2022/12/11 04:01:01;;;;;;;55.78;34.88;;;;;;;7.63;100.00;98540.66;5037581;28;20056;-74
2022/12/11 04:03:27;;;;;;;58.22;37.53;;;;;;;7.89;100.00;98567.19;5044884;28;20056;-79
2022/12/11 04:05:54;;;;;;;49.88;34.17;;;;;;;7.52;100.00;98481.72;5043447;28;20496;-77
2022/12/11 04:08:21;;;;;;;57.33;32.85;;;;;;;8.19;100.00;98581.41;5036457;28;20140;-75
2022/12/11 04:10:47;;;;;;;52.03;33.83;;;;;;;8.15;100.00;98581.47;5039313;28;20163;-75
2022/12/11 04:13:13;;;;;;;53.22;34.63;;;;;;;7.54;100.00;98486.91;5042865;28;20156;-75
2022/12/11 04:15:39;;;;;;;52.00;33.15;;;;;;;7.35;100.00;98460.28;5048382;28;20667;-78
2022/12/11 04:26:22;;;;;;;52.85;31.60;;;;;;;8.20;100.00;98585.72;5036961;28;20080;-78
2022/12/11 04:28:49;;;;;;;44.10;30.27;;;;;;;8.05;100.00;98575.56;5043669;28;20045;-75
2022/12/11 04:31:18;;;;;;;50.15;27.85;;;;;;;8.19;100.00;98584.00;5046533;28;20861;-77
2022/12/11 04:33:43;;;;;;;37.17;27.70;;;;;;;7.55;100.00;98475.56;5045556;28;20052;-76
2022/12/11 04:36:10;;;;;;;33.80;25.33;;;;;;;7.62;100.00;98466.75;5038215;28;20758;-78
2022/12/11 04:38:36;;;;;;;34.75;25.83;;;;;;;7.52;100.00;98457.38;5044589;28;20124;-78
2022/12/11 04:41:11;;;;;;;56.63;30.17;;;;;;;7.66;100.00;98471.00;5034830;28;20060;-77
2022/12/11 04:43:37;;;;;;;43.72;29.17;;;;;;;8.04;100.00;98547.72;5042323;28;20071;-75
2022/12/11 04:46:14;;;;;;;41.67;26.45;;;;;;;7.56;100.00;98451.19;5035392;28;20049;-75
2022/12/11 04:48:40;;;;;;;47.45;25.80;;;;;;;8.29;100.00;98535.03;5044534;28;20060;-77
2022/12/11 04:51:06;;;;;;;33.40;24.65;;;;;;;8.31;100.00;98527.13;5039537;28;20029;-77
2022/12/11 04:53:31;;;;;;;46.08;25.90;;;;;;;7.94;100.00;98454.78;5040798;28;20138;-76
2022/12/11 04:55:57;;;;;;;34.20;22.27;;;;;;;7.51;100.00;98395.63;5043873;28;20055;-77
2022/12/11 04:58:24;;;;;;;36.58;23.75;;;;;;;8.45;100.00;98559.09;5042152;28;20049;-76
2022/12/11 05:00:50;;;;;;;38.17;25.35;;;;;;;8.62;100.00;98551.75;5042080;28;20674;-75
2022/12/11 05:03:17;;;;;;;34.65;23.58;;;;;;;8.45;100.00;98535.56;5021123;28;20404;-77
2022/12/11 05:05:52;;;;;;;33.97;23.13;;;;;;;7.98;100.00;98431.19;5047197;28;20536;-75
2022/12/11 05:08:20;;;;;;;40.65;24.48;;;;;;;8.50;100.00;98510.22;5036168;28;20052;-74
2022/12/11 05:10:55;;;;;;;40.53;24.25;;;;;;;8.17;100.00;98446.44;5037105;28;20044;-76
2022/12/11 05:13:20;;;;;;;37.97;22.45;;;;;;;8.63;100.00;98503.78;5037108;28;20057;-74
2022/12/11 05:15:46;;;;;;;32.83;24.45;;;;;;;8.16;100.00;98421.22;5041674;28;20632;-77
2022/12/11 05:18:11;;;;;;;33.67;22.17;;;;;;;8.09;100.00;98424.88;5047765;28;20032;-77
2022/12/11 05:20:36;;;;;;;41.38;22.70;;;;;;;7.67;100.00;98316.09;5044444;28;20080;-75
2022/12/11 05:23:02;;;;;;;38.88;22.55;;;;;;;7.25;100.00;98237.88;5040778;28;20049;-74
2022/12/11 05:25:27;;;;;;;30.70;22.88;;;;;;;8.22;100.00;98421.94;5039113;28;20045;-74
2022/12/11 05:27:53;;;;;;;33.95;19.92;;;;;;;8.23;100.00;98448.94;5049001;28;20052;-75
2022/12/11 05:30:18;;;;;;;32.30;19.67;;;;;;;8.88;100.00;98513.69;5043688;28;20636;-74
2022/12/11 05:32:44;;;;;;;29.45;20.63;;;;;;;8.56;100.00;98454.31;5040302;28;20630;-75
2022/12/11 05:35:09;;;;;;;30.02;21.25;;;;;;;9.14;100.00;98546.22;5041092;28;20444;-77
2022/12/11 05:37:35;;;;;;;40.78;22.52;;;;;;;8.84;100.00;98546.88;5041397;28;20135;-76
2022/12/11 05:40:01;;;;;;;31.30;21.60;;;;;;;8.28;100.00;98426.16;5039676;28;20080;-76
2022/12/11 05:42:26;;;;;;;30.13;24.75;;;;;;;8.82;100.00;98553.91;5026034;28;20523;-74
2022/12/11 05:44:51;;;;;;;34.50;23.70;;;;;;;8.79;100.00;98551.38;5042966;28;20040;-78
2022/12/11 05:47:19;;;;;;;36.42;24.65;;;;;;;8.62;100.00;98535.22;5044329;28;20045;-79
2022/12/11 05:49:46;;;;;;;36.13;22.48;;;;;;;8.75;100.00;98561.94;5027334;28;20049;-78
2022/12/11 05:52:11;;;;;;;35.90;24.75;;;;;;;8.23;100.00;98465.47;5027283;28;20498;-76
2022/12/11 05:54:37;;;;;;;41.85;23.38;;;;;;;7.98;100.00;98459.03;5046034;28;20059;-77
2022/12/11 05:57:02;;;;;;;38.03;23.45;;;;;;;8.18;100.00;98490.81;5050852;28;20487;-75
2022/12/11 05:59:28;;;;;;;48.17;25.92;;;;;;;8.24;100.00;98459.34;5047872;28;20037;-74
2022/12/11 06:01:53;;;;;;;27.98;21.83;;;;;;;8.55;100.00;98534.50;5047411;28;20048;-75
2022/12/11 06:04:18;;;;;;;36.00;21.17;;;;;;;8.70;100.00;98585.56;5047736;28;20053;-75
2022/12/11 06:06:44;;;;;;;31.45;23.50;;;;;;;8.05;100.00;98450.19;5043640;28;20044;-76
2022/12/11 06:09:13;;;;;;;46.85;24.00;;;;;;;8.76;100.00;98589.81;5047815;28;20040;-75
2022/12/11 06:11:39;;;;;;;30.17;22.80;;;;;;;8.77;100.00;98570.63;5050810;28;20130;-75
2022/12/11 06:14:05;;;;;;;31.27;22.48;;;;;;;8.90;100.00;98576.41;5046305;28;20476;-75
2022/12/11 06:16:31;;;;;;;37.22;22.48;;;;;;;8.89;100.00;98593.88;5034576;28;20871;-75
2022/12/11 06:18:57;;;;;;;34.42;21.00;;;;;;;8.36;100.00;98488.72;5060151;28;20558;-75
2022/12/11 06:21:30;;;;;;;34.88;22.05;;;;;;;8.97;100.00;98601.56;5060582;28;20048;-77
2022/12/11 06:23:58;;;;;;;32.35;19.08;;;;;;;8.50;100.00;98515.44;5046111;28;20039;-76
2022/12/11 06:26:25;;;;;;;40.33;21.30;;;;;;;8.99;100.00;98610.22;5050170;28;20037;-76
2022/12/11 06:28:52;;;;;;;42.63;22.88;;;;;;;8.36;100.00;98478.28;5052028;28;20167;-76
2022/12/11 06:31:18;;;;;;;28.23;22.08;;;;;;;9.18;100.00;98605.44;5045941;28;20460;-77
2022/12/11 06:33:44;;;;;;;34.47;25.55;;;;;;;9.11;100.00;98578.56;5053650;28;20048;-76
2022/12/11 06:36:16;;;;;;;37.75;24.50;;;;;;;9.32;100.00;98603.34;5057484;28;20032;-76
2022/12/11 06:38:42;;;;;;;39.45;22.50;;;;;;;9.35;100.00;98624.19;5034941;28;20032;-76
2022/12/11 06:41:08;;;;;;;28.30;21.48;;;;;;;9.08;100.00;98583.84;5044301;28;20052;-77
2022/12/11 06:43:36;;;;;;;44.25;25.15;;;;;;;9.39;100.00;98618.00;5061175;28;20686;-78
2022/12/11 06:46:06;;;;;;;30.63;22.45;;;;;;;8.75;100.00;98505.25;5045359;28;20057;-76
2022/12/11 06:48:32;;;;;;;40.00;23.38;;;;;;;9.51;100.00;98627.31;5040871;28;20045;-75
2022/12/11 06:50:58;;;;;;;41.10;22.30;;;;;;;9.40;100.00;98629.31;5049951;28;20552;-78
2022/12/11 06:53:23;;;;;;;38.50;24.65;;;;;;;8.82;100.00;98511.22;5045715;28;20044;-76
2022/12/11 06:55:49;;;;;;;39.20;24.67;;;;;;;8.76;100.00;98514.00;5045833;28;20806;-75
2022/12/11 06:58:15;;;;;;;33.58;23.83;;;;;;;9.23;100.00;98614.88;5045328;28;20115;-75
2022/12/11 07:00:41;;;;;;;33.47;21.85;;;;;;;9.25;100.00;98618.34;5045132;28;20056;-74
2022/12/11 07:03:08;;;;;;;42.33;23.08;;;;;;;9.51;100.00;98641.25;5048503;28;20128;-75
2022/12/11 07:05:34;;;;;;;39.95;25.77;;;;;;;9.53;100.00;98633.38;5055163;28;20053;-74
2022/12/11 07:08:00;;;;;;;52.92;27.02;;;;;;;9.72;100.00;98655.59;5041765;28;20152;-76
2022/12/11 07:10:25;;;;;;;45.88;26.05;;;;;;;9.11;100.00;98538.41;5027224;28;20132;-77
2022/12/11 07:12:53;;;;;;;43.30;26.08;;;;;;;9.77;100.00;98631.91;5038008;28;20060;-74
2022/12/11 07:15:19;;;;;;;35.33;23.85;;;;;;;9.89;100.00;98636.81;5056533;28;20032;-75
2022/12/11 07:17:44;;;;;;;36.90;26.08;;;;;;;10.00;100.00;98631.31;5048218;28;20028;-75
2022/12/11 07:20:10;;;;;;;38.45;24.10;;;;;;;10.08;100.00;98626.69;5038896;28;20049;-76
2022/12/11 07:22:35;;;;;;;33.15;24.52;;;;;;;10.33;100.00;98652.28;5040925;28;20041;-74
2022/12/11 07:25:01;;;;;;;43.72;23.63;;;;;;;9.75;100.00;98531.53;5041124;28;20488;-75
2022/12/11 07:27:27;;;;;;;40.45;25.05;;;;;;;9.94;100.00;98551.09;5048389;28;20053;-76
2022/12/11 07:29:54;;;;;;;40.45;25.05;;;;;;;10.12;100.00;98562.84;5039656;28;20036;-75
2022/12/11 07:32:20;;;;;;;37.35;23.40;;;;;;;10.84;100.00;98677.06;5050496;28;20045;-75
2022/12/11 07:34:47;;;;;;;27.75;21.42;;;;;;;10.77;100.00;98672.03;5037056;28;20045;-76
2022/12/11 07:37:12;;;;;;;29.08;20.58;;;;;;;10.87;100.00;98646.38;5054005;28;20059;-74
2022/12/11 07:39:38;;;;;;;30.27;21.77;;;;;;;10.65;100.00;98598.06;5029291;28;20045;-76
2022/12/11 07:42:03;;;;;;;31.55;21.52;;;;;;;11.17;100.00;98668.22;5017500;28;20796;-76
2022/12/11 07:44:30;;;;;;;29.45;20.80;;;;;;;10.83;100.00;98600.13;5052664;28;20058;-77
2022/12/11 07:46:56;;;;;;;30.15;19.67;;;;;;;10.79;100.00;98603.75;5049638;28;20053;-74
2022/12/11 07:49:21;;;;;;;29.02;17.55;;;;;;;11.59;100.00;98709.81;5042957;28;20507;-75
2022/12/11 07:51:47;;;;;;;23.80;17.42;;;;;;;11.14;100.00;98605.31;5026243;28;20048;-77
2022/12/11 07:54:15;;;;;;;34.38;17.77;;;;;;;11.45;100.00;98632.34;5029761;28;20037;-76
2022/12/11 07:56:46;;;;;;;29.00;14.60;;;;;;;11.27;100.00;98578.66;5043701;28;20068;-76
2022/12/11 07:59:12;;;;;;;26.65;14.13;;;;;;;12.29;100.00;98718.94;5053278;28;20057;-75
2022/12/11 08:01:38;;;;;;;20.75;13.30;;;;;;;12.29;100.00;98697.03;5037949;28;20052;-76
2022/12/11 08:04:06;;;;;;;24.90;11.98;;;;;;;12.35;100.00;98688.94;5053219;28;20048;-76
2022/12/11 08:06:34;;;;;;;28.98;12.68;;;;;;;12.51;100.00;98705.88;5043781;28;20051;-76
2022/12/11 08:09:02;;;;;;;18.33;10.27;;;;;;;11.64;100.00;98504.75;5038051;28;20038;-76
2022/12/11 08:11:28;;;;;;;21.65;11.82;;;;;;;12.12;100.00;98580.16;5038924;28;20036;-75
2022/12/11 08:13:54;;;;;;;29.63;11.15;;;;;;;12.88;100.00;98651.91;5044492;28;20091;-78
2022/12/11 08:16:20;;;;;;;27.90;12.07;;;;;;;12.75;100.00;98577.81;5042568;28;20128;-79
2022/12/11 08:18:46;;;;;;;16.33;10.63;;;;;;;12.82;100.00;98552.97;5021934;28;20049;-78
2022/12/11 08:21:18;;;;;;;23.33;8.55;;;;;;;13.58;100.00;98648.31;5036999;28;20060;-80
2022/12/11 08:23:44;;;;;;;22.13;10.23;;;;;;;13.59;100.00;98638.63;5047509;28;20057;-77
2022/12/11 08:26:14;;;;;;;18.80;9.63;;;;;;;13.17;100.00;98518.25;5053031;28;20061;-79
2022/12/11 08:28:39;;;;;;;26.27;9.10;;;;;;;13.89;100.00;98612.78;5019489;28;20049;-77
2022/12/11 08:31:07;;;;;;;13.32;7.38;;;;;;;14.22;100.00;98633.34;5036521;28;20080;-79
2022/12/11 08:33:33;;;;;;;17.35;8.05;;;;;;;13.69;100.00;98513.44;5026308;28;20483;-78
2022/12/11 08:36:02;;;;;;;15.50;6.63;;;;;;;13.59;100.00;98517.41;5040704;28;20067;-78
2022/12/11 08:38:27;;;;;;;16.67;7.47;;;;;;;14.29;100.00;98629.53;5044395;28;20048;-78
2022/12/11 08:40:53;;;;;;;14.98;7.10;;;;;;;14.36;100.00;98620.41;5021303;28;20103;-77
2022/12/11 08:43:18;;;;;;;14.65;7.00;;;;;;;14.28;100.00;98597.00;5039961;28;20060;-77
2022/12/11 08:45:45;;;;;;;13.43;7.97;;;;;;;14.23;100.00;98563.81;5041854;28;20052;-77
2022/12/11 08:48:11;;;;;;;12.65;6.75;;;;;;;14.57;100.00;98608.91;5034248;28;20060;-79
2022/12/11 08:50:36;;;;;;;10.93;6.47;;;;;;;14.08;100.00;98518.75;5039463;28;20115;-76
2022/12/11 08:53:02;;;;;;;11.43;7.38;;;;;;;14.71;100.00;98597.72;5039016;28;20527;-77
2022/12/11 08:55:27;;;;;;;8.13;4.90;;;;;;;14.24;100.00;98502.25;5034556;28;20046;-79
2022/12/11 08:57:54;;;;;;;13.23;5.68;;;;;;;14.19;100.00;98481.34;5030637;28;20060;-77
2022/12/11 09:00:20;;;;;;;12.05;4.32;;;;;;;14.78;100.00;98588.59;5020020;28;20467;-77
2022/12/11 09:02:46;;;;;;;11.73;4.38;;;;;;;14.42;100.00;98521.63;5042737;28;20044;-78
2022/12/11 09:05:13;;;;;;;11.45;4.68;;;;;;;14.68;100.00;98560.91;5039692;28;20131;-78
2022/12/11 09:07:38;;;;;;;14.32;4.72;;;;;;;14.88;100.00;98604.84;5018215;28;20049;-77
2022/12/11 09:10:06;;;;;;;8.32;3.88;;;;;;;14.98;100.00;98600.88;5027698;28;20127;-74
2022/12/11 09:12:33;;;;;;;11.35;4.13;;;;;;;14.42;100.00;98506.69;5037139;28;20071;-79
2022/12/11 09:14:59;;;;;;;8.52;3.60;;;;;;;14.87;100.00;98576.75;5041307;28;20033;-79
2022/12/11 09:17:24;;;;;;;8.23;5.10;;;;;;;14.92;100.00;98577.38;5046886;28;20201;-77
2022/12/11 09:19:50;;;;;;;12.48;4.78;;;;;;;14.23;100.00;98453.88;5027355;28;20049;-77
2022/12/11 09:22:15;;;;;;;13.02;3.47;;;;;;;14.23;100.00;98438.06;5041816;28;20053;-75
2022/12/11 09:24:41;;;;;;;7.97;3.17;;;;;;;14.99;100.00;98568.25;5029332;28;20484;-75
2022/12/11 09:27:06;;;;;;;14.23;4.32;;;;;;;14.95;100.00;98563.19;5042810;28;20048;-77
2022/12/11 09:29:32;;;;;;;10.90;5.43;;;;;;;14.93;100.00;98557.94;5059151;28;20045;-76
2022/12/11 09:31:57;;;;;;;15.38;5.28;;;;;;;14.44;100.00;98490.75;5046641;28;20052;-77
2022/12/11 09:34:23;;;;;;;14.43;4.28;;;;;;;14.78;100.00;98529.66;5041471;28;20693;-80
2022/12/11 09:36:49;;;;;;;9.10;5.28;;;;;;;15.00;100.00;98563.81;5036051;28;20067;-76
2022/12/11 09:39:15;;;;;;;11.10;5.28;;;;;;;14.88;100.00;98548.56;5048223;28;20515;-76
2022/12/11 09:42:06;;;;;;;22.17;4.95;;;;;;;14.97;100.00;98579.81;5039945;28;20497;-75
2022/12/11 09:44:37;;;;;;;8.65;5.13;;;;;;;14.89;100.00;98585.47;5019046;28;20064;-71
2022/12/11 09:47:19;;;;;;;9.43;4.82;;;;;;;14.33;100.00;98478.94;5033418;28;20493;-69
2022/12/11 09:49:48;;;;;;;22.30;8.15;;;;;;;14.83;100.00;98572.53;5043622;28;20849;-71
2022/12/11 09:52:28;;;;;;;17.30;7.25;;;;;;;14.99;100.00;98589.38;5040836;28;20071;-71
2022/12/11 09:55:01;;;;;;;15.10;6.28;;;;;;;15.03;100.00;98587.44;5051284;28;20131;-71
2022/12/11 09:57:44;;;;;;;15.73;7.40;;;;;;;14.94;100.00;98577.31;5038119;28;20068;-72
2022/12/11 10:00:20;;;;;;;17.00;6.82;;;;;;;14.88;100.00;98570.53;5043601;28;20024;-73
2022/12/11 10:03:17;;;;;;;12.27;6.07;;;;;;;14.72;100.00;98562.47;5042921;28;20032;-72
2022/12/11 10:06:20;;;;;;;13.27;5.93;;;;;;;14.29;100.00;98460.66;5038418;28;20090;-73
2022/12/11 10:08:56;;;;;;;11.23;6.65;;;;;;;14.70;100.00;98527.38;4991604;28;20045;-72
2022/12/11 10:11:34;;;;;;;13.27;7.25;;;;;;;14.45;100.00;98461.66;5026306;28;20057;-73
2022/12/11 10:14:12;;;;;;;20.70;7.30;;;;;;;15.06;100.00;98570.59;5047422;28;20041;-73
2022/12/11 10:16:37;;;;;;;14.15;7.22;;;;;;;15.03;100.00;98568.97;5046196;28;20055;-73
2022/12/11 10:19:03;;;;;;;13.48;6.70;;;;;;;14.98;100.00;98561.25;5048510;28;20373;-74
2022/12/11 10:21:41;;;;;;;16.73;7.30;;;;;;;14.38;100.00;98480.50;5047295;28;20081;-74
2022/12/11 10:24:34;;;;;;;14.40;6.22;;;;;;;14.70;100.00;98559.06;5045143;28;20143;-74
2022/12/11 10:27:13;;;;;;;13.50;6.93;;;;;;;14.37;100.00;98511.28;5047032;28;20033;-73
2022/12/11 10:29:39;;;;;;;15.15;7.00;;;;;;;14.40;100.00;98497.97;5045889;28;20049;-73
2022/12/11 10:32:16;;;;;;;10.02;6.25;;;;;;;14.87;100.00;98574.09;5046896;28;20139;-72
2022/12/11 10:34:46;;;;;;;14.80;6.95;;;;;;;14.84;100.00;98557.53;5050643;28;20045;-72
2022/12/11 10:37:12;;;;;;;14.02;7.35;;;;;;;15.32;100.00;98580.75;5044913;28;20041;-72
2022/12/11 10:39:37;;;;;;;15.75;6.53;;;;;;;15.24;100.00;98564.44;5043925;28;20056;-72
2022/12/11 10:42:18;;;;;;;12.23;7.53;;;;;;;15.13;100.00;98574.66;5046448;28;20032;-73
2022/12/11 10:45:01;;;;;;;11.85;6.70;;;;;;;14.94;100.00;98588.72;5045288;28;20480;-71
2022/12/11 10:47:27;;;;;;;12.75;7.50;;;;;;;14.95;100.00;98542.91;5029707;28;20069;-72
2022/12/11 10:49:59;;;;;;;17.67;7.95;;;;;;;14.57;100.00;98500.69;5043798;28;20100;-73
2022/12/11 10:52:32;;;;;;;11.20;6.10;;;;;;;14.96;100.00;98536.69;5047243;28;20041;-70
2022/12/11 10:55:01;;;;;;;13.43;6.38;;;;;;;14.71;100.00;98471.00;5041058;28;20445;-70
2022/12/11 10:57:35;;;;;;;7.90;5.65;;;;;;;15.28;100.00;98567.75;5040350;28;20041;-71
2022/12/11 11:00:05;;;;;;;11.85;7.03;;;;;;;14.73;100.00;98453.31;5047225;28;20140;-70
2022/12/11 11:02:34;;;;;;;10.65;5.93;;;;;;;15.24;100.00;98457.84;5029022;28;20388;-72
2022/12/11 11:05:13;;;;;;;11.18;5.75;;;;;;;15.41;100.00;98492.22;5044244;28;20101;-72
2022/12/11 11:07:39;;;;;;;12.00;6.32;;;;;;;15.67;100.00;98558.78;5042297;28;20045;-72
2022/12/11 11:10:10;;;;;;;12.32;5.95;;;;;;;15.69;100.00;98571.00;5044929;28;20564;-70
2022/12/11 11:12:39;;;;;;;12.27;5.95;;;;;;;15.91;100.00;98557.56;5044792;28;20164;-70
2022/12/11 11:15:17;;;;;;;11.40;7.45;;;;;;;15.82;100.00;98555.38;5049037;28;20481;-70
2022/12/11 11:17:49;;;;;;;12.65;6.43;;;;;;;15.75;100.00;98544.25;5049244;28;20044;-70
2022/12/11 11:20:18;;;;;;;15.32;6.63;;;;;;;15.85;100.00;98547.31;5048785;28;20052;-70
2022/12/11 11:22:50;;;;;;;18.27;6.20;;;;;;;15.41;100.00;98452.59;5039896;28;20057;-70
2022/12/11 11:25:19;;;;;;;11.10;5.75;;;;;;;15.76;100.00;98521.34;5016106;28;20087;-72
2022/12/11 11:27:51;;;;;;;10.65;6.45;;;;;;;15.68;100.00;98524.31;5034623;28;20089;-74
2022/12/11 11:30:21;;;;;;;12.40;6.57;;;;;;;15.04;100.00;98441.22;5023187;28;20064;-76
2022/12/11 11:32:53;;;;;;;8.93;6.00;;;;;;;15.46;100.00;98507.84;5041608;28;20088;-74
2022/12/11 11:35:24;;;;;;;19.30;8.73;;;;;;;15.59;100.00;98541.53;5046031;28;20049;-75